Home > Products > Valid Products > TAF

000
FTUS46 KSEW 311700
TAFHQM
TAF
KHQM 311740Z 3118/0118 07009KT 4SM BR SCT004 BKN250
      TEMPO 3118/3120 BKN004 BKN250
     FM312100 07009KT P6SM OVC250
     FM010000 07009KT P6SM SCT100 OVC250
     FM010600 09009KT P6SM SCT050 OVC100 PROB30 0106/0112 -RA OVC050
     FM011200 11009KT 5SM -RA BR SCT030 OVC050=



000
FTUS46 KSEW 311700
TAFPAE
TAF
KPAE 311740Z 3118/0118 36006KT 1/4SM FG VV001
     FM312100 36006KT 2SM BR OVC003
     FM010000 32005KT P6SM SCT100 OVC250
     FM010600 VRB03KT P6SM SCT050 OVC100 PROB30 0109/0112 -RA OVC050
     FM011200 14008KT P6SM -RA SCT030 OVC050=



000
FTUS46 KSEW 311700
TAFBLI
TAF
KBLI 311740Z 3118/0118 VRB03KT 3/4SM BR VV002
      TEMPO 3118/3120 1/4SM FG
     FM312000 VRB03KT 4SM BR FEW004 SCT100 OVC250
     FM312100 VRB03KT P6SM SCT100 OVC250
     FM010000 VRB03KT P6SM SCT050 BKN100 OVC250
     FM010600 VRB03KT P6SM -RA FEW035 BKN050 OVC100=



000
FTUS46 KSEW 311700
TAFCLM
TAF
KCLM 311740Z 3118/0118 VRB03KT P6SM VCFG BKN004 OVC250
     FM312000 VRB03KT P6SM SCT100 OVC250
     FM010000 VRB03KT P6SM BKN100 OVC250
     FM010600 VRB03KT P6SM SCT050 OVC100 PROB30 0106/0112 -RA OVC050
     FM011200 VRB03KT 5SM -RA BR SCT028 OVC050=



000
FTUS46 KSEW 311700
TAFBFI
TAF
KBFI 311740Z 3118/0118 VRB03KT 1/4SM FG VV002
     FM312000 VRB03KT 3SM BR BKN007 BKN250
     FM312200 VRB03KT 6SM BR HZ SCT010 SCT100 OVC250
     FM010000 VRB03KT P6SM SCT100 OVC250
     FM010600 VRB03KT P6SM SCT050 OVC100
     FM011200 13005KT P6SM -RA SCT035 OVC050=



000
FTUS46 KSEW 311700
TAFOLM
TAF
KOLM 311740Z 3118/0118 VRB03KT 1SM BR VV002
      TEMPO 3118/3121 1/4SM FG
     FM312200 VRB03KT 3SM BR OVC004
     FM010000 VRB03KT 6SM BR SCT007 OVC250
     FM010600 VRB03KT 2SM BR FEW050 BKN100 OVC250
     FM011200 VRB03KT 4SM -RA BR SCT025 OVC050=



000
FTUS46 KSEW 311700
TAFSEA
TAF
KSEA 311740Z 3118/0124 01006KT 1/4SM FG VV001
     FM312000 01006KT 2SM BR BKN003 BKN250
     FM312200 01006KT 5SM BR HZ FEW006 SCT100 OVC250
     FM010000 04005KT P6SM SCT100 OVC250
     FM010600 10005KT P6SM SCT050 OVC100
     FM011200 14005KT P6SM -RA SCT035 OVC050
     FM011800 18008KT P6SM -RA SCT020 OVC035=



000
FTUS46 KSEW 311700 AAB
TAFOLM
TAF AMD
KOLM 311707Z 3117/0112 VRB03KT 1/4SM FG VV002
     FM312200 VRB03KT 1/2SM FG VV003=



000
FTUS46 KSEW 311500 AAA
TAFHQM
TAF AMD
KHQM 311533Z 3116/0112 07010KT 6SM BR FEW002 BKN250
      TEMPO 3116/3118 4SM BR VV002
     FM312000 07009KT P6SM BKN250=



000
FTUS46 KSEW 311500 AAA
TAFOLM
TAF AMD
KOLM 311528Z 3115/0112 VRB03KT 1SM BR VV002
      TEMPO 3115/3118 1/2SM FG
     FM312200 VRB03KT 1/2SM FG VV003=



000
FTUS46 KSEW 311400 AAA
TAFSEA
TAF AMD
KSEA 311416Z 3114/0118 03003KT 1/4SM FG VV001
     FM312000 VRB03KT 2SM BR BKN002
     FM312200 VRB03KT 6SM HZ BKN200
     FM011000 VRB03KT P6SM OVC100
     FM011700 14006KT P6SM -RA BKN045 OVC070=



000
FTUS46 KSEW 311300 AAA
TAFCLM
TAF AMD
KCLM 311313Z 3113/0112 VRB03KT P6SM OVC004
      TEMPO 3113/3116 2SM BR
     FM311800 07005KT P6SM VCFG BKN200=



000
FTUS46 KSEW 311100
TAFHQM
TAF
KHQM 311133Z 3112/0112 07010KT 4SM BR SCT001 BKN200
      TEMPO 3112/3116 1SM BR BKN001
     FM311600 07009KT 3SM BR BKN004 BKN200
     FM312100 07009KT P6SM BKN200=



000
FTUS46 KSEW 311100
TAFSEA
TAF
KSEA 311133Z 3112/0118 03003KT 1/4SM FG VV001
     FM312000 VRB03KT 2SM BR BKN002
     FM010000 VRB03KT 6SM HZ BKN200=



000
FTUS46 KSEW 311100
TAFBFI
TAF
KBFI 311133Z 3112/0112 00000KT 1/2SM FG VV002
     FM312000 VRB03KT 4SM BR BKN004
     FM010000 VRB03KT 6SM HZ BKN200=



000
FTUS46 KSEW 311100
TAFCLM
TAF
KCLM 311133Z 3112/0112 VRB03KT P6SM BKN200
      TEMPO 3112/3116 2SM BR
     FM311800 07005KT P6SM VCFG BKN200=



000
FTUS46 KSEW 311100
TAFPAE
TAF
KPAE 311133Z 3112/0112 02005KT 1/4SM FG VV001
     FM311800 VRB03KT 6SM HZ BKN200=



000
FTUS46 KSEW 311100
TAFOLM
TAF
KOLM 311133Z 3112/0112 00000KT 1/4SM FG VV002
     FM312200 VRB03KT 1/2SM FG VV003=



000
FTUS46 KSEW 311100
TAFBLI
TAF
KBLI 311133Z 3112/0112 00000KT 1/4SM FG VV001
     FM311900 01005KT 3SM BR BKN003 OVC250
     FM312100 03008KT P6SM BKN200=



000
FTUS46 KSEW 310700 AAA
TAFHQM
TAF AMD
KHQM 310708Z 3107/0106 08008KT 1/2SM FG VV002
     FM311800 07009KT 3SM BR BKN004 BKN200
     FM312100 07009KT P6SM BKN200=



000
FTUS46 KSEW 310600 AAA
TAFPAE
TAF AMD
KPAE 310627Z 3106/0106 00000KT 1/4SM FG VV001
     FM311800 VRB03KT 6SM HZ BKN200
      AMD NOT SKED=



000
FTUS46 KSEW 310500
TAFCLM
TAF
KCLM 310520Z 3106/0106 VRB04KT P6SM SKC
      TEMPO 3110/3114 2SM BR
     FM311800 07005KT P6SM VCFG BKN200=



000
FTUS46 KSEW 310500
TAFPAE
TAF
KPAE 310520Z 3106/0106 00000KT P6SM SKC
     FM311000 00000KT 1/2SM FG VV002
     FM311800 VRB03KT 6SM HZ BKN200=



000
FTUS46 KSEW 310500
TAFBLI
TAF
KBLI 310520Z 3106/0106 00000KT 2SM BR BKN002
      TEMPO 3106/3110 1/2SM FG VV002
     FM311000 00000KT 1/4SM FG VV001
     FM311900 01005KT 3SM BR BKN003 OVC250
     FM312100 03008KT P6SM BKN200=



000
FTUS46 KSEW 310500
TAFHQM
TAF
KHQM 310520Z 3106/0106 04005KT 4SM BR FEW003 SCT250
     FM310900 04005KT 1/2SM FG VV002
     FM311800 07009KT 3SM BR BKN004 BKN200
     FM312100 07009KT P6SM BKN200=



000
FTUS46 KSEW 310500
TAFBFI
TAF
KBFI 310520Z 3106/0106 00000KT 1/2SM FG VV002
     FM312000 VRB03KT 4SM BR BKN004
     FM010000 VRB03KT 6SM HZ BKN200=



000
FTUS46 KSEW 310500
TAFOLM
TAF
KOLM 310520Z 3106/0106 00000KT 1/4SM FG VV001
     FM312200 VRB03KT 1/2SM FG VV003=



000
FTUS46 KSEW 310500
TAFSEA
TAF
KSEA 310520Z 3106/0112 00000KT 1/2SM FG VV002
     FM312000 VRB03KT 2SM BR BKN002
     FM010000 VRB03KT 6SM HZ BKN200=



000
FTUS46 KSEW 310300 AAB
TAFBFI
TAF AMD
KBFI 310327Z 3103/3124 VRB03KT 2SM BR SCT002
      TEMPO 3103/3106 1/4SM FG VV001
     FM310600 00000KT 1/4SM FG VV001
     FM312000 VRB03KT 2SM BR BKN002=



000
FTUS46 KSEW 310300 AAA
TAFBFI
TAF AMD
KBFI 310306Z 3103/3124 VRB03KT 5SM BR SCT002
      TEMPO 3103/3106 2SM BR BKN003
     FM310600 00000KT 2SM BR BKN003
     FM310900 00000KT 1/2SM FG VV002
     FM312000 VRB03KT 4SM BR BKN004=



000
FTUS46 KSEW 310300 AAB
TAFSEA
TAF AMD
KSEA 310305Z 3103/0106 VRB03KT 2SM BR SCT001
      TEMPO 3103/3106 1/2SM FG BKN001
     FM310600 00000KT 1/4SM FG VV001
     FM312000 VRB03KT 2SM BR OVC003
      TEMPO 3120/3122 3/4SM BR
     FM010000 VRB03KT 6SM BR HZ FEW006 SCT100 OVC250=



000
FTUS46 KSEW 310200 AAA
TAFSEA
TAF AMD
KSEA 310214Z 3102/0106 VRB03KT 4SM BR HZ SCT003 BKN250
      TEMPO 3102/3103 1/2SM FG BKN001 BKN250
     FM310300 VRB03KT 1SM BR OVC002
     FM310600 00000KT 1/4SM FG VV001
     FM312000 VRB03KT 2SM BR OVC003
      TEMPO 3120/3122 3/4SM BR
     FM010000 VRB03KT 6SM BR HZ FEW006 SCT100 OVC250=



000
FTUS46 KSEW 302300 AAA
TAFBLI
TAF AMD
KBLI 302354Z 3100/3124 VRB03KT P6SM SCT090 BKN250
      TEMPO 3100/3103 BKN090 BKN250
     FM310600 00000KT 5SM BR SCT250
     FM310800 00000KT 1SM BR VV002
     FM311000 00000KT 1/4SM FG VV001
     FM311900 01005KT 3SM BR BKN003 OVC250
     FM312100 33005KT P6SM SCT100 OVC250=



000
FTUS46 KSEW 302300 RRA
TAFBFI
TAF
KBFI 302343Z 3100/3124 VRB03KT 6SM HZ VCFG SCT007 BKN250
      TEMPO 3100/3103 4SM BR HZ BKN007 BKN250
     FM310300 00000KT 3SM BR OVC006
     FM310900 00000KT 1/4SM FG VV002
     FM312000 VRB03KT 4SM BR OVC007
      TEMPO 3120/3122 1SM BR OVC004=



000
FTUS46 KSEW 302300 RRA
TAFHQM
TAF
KHQM 302343Z 3100/3124 23006KT P6SM SCT250
     FM310300 04005KT P6SM VCFG SCT250
     FM310600 04005KT 4SM BR FEW003 SCT250
     FM310900 04005KT 1SM BR VV002
     FM311200 04006KT 1/4SM FG VV002
     FM311800 07009KT 3SM BR BKN004 BKN250
     FM312100 07009KT P6SM FEW100 OVC250=



000
FTUS46 KSEW 302300 RRA
TAFPAE
TAF
KPAE 302343Z 3100/3124 VRB03KT P6SM VCFG BKN250
     FM310600 VRB03KT 2SM BR SCT002 SCT250
     FM310900 00000KT 1/4SM FG VV001
     FM312000 VRB03KT 1SM BR VV002
     FM312200 VRB03KT 5SM BR HZ BKN004 OVC250=



000
FTUS46 KSEW 302300 RRA
TAFSEA
TAF
KSEA 302343Z 3100/0106 VRB03KT 4SM BR HZ SCT003 BKN250
      TEMPO 3100/3103 2SM BR BKN003 BKN250
     FM310300 VRB03KT 1SM BR OVC002
     FM310600 00000KT 1/4SM FG VV001
     FM312000 VRB03KT 2SM BR OVC003
      TEMPO 3120/3122 3/4SM BR
     FM010000 VRB03KT 6SM BR HZ FEW006 SCT100 OVC250=



000
FTUS46 KSEW 302300 RRA
TAFBLI
TAF
KBLI 302343Z 3100/3124 VRB03KT P6SM SCT090 BKN250
     FM310600 00000KT 5SM BR SCT250
     FM310800 00000KT 1SM BR VV002
     FM311000 00000KT 1/4SM FG VV001
     FM311900 01005KT 3SM BR BKN003 OVC250
     FM312100 33005KT P6SM SCT100 OVC250=



000
FTUS46 KSEW 302300 RRA
TAFCLM
TAF
KCLM 302343Z 3100/3124 VRB03KT P6SM SCT250
     FM310600 24005KT P6SM VCFG FEW004 BKN250
     FM311800 07005KT P6SM VCFG FEW100 OVC250=



000
FTUS46 KSEW 302300 RRA
TAFOLM
TAF
KOLM 302343Z 3100/3124 VRB03KT 1SM BR OVC003
      TEMPO 3100/3104 1/2SM FG VV002
     FM310400 00000KT 1/2SM FG VV002
     FM310600 00000KT 1/4SM FG VV001
     FM312200 VRB03KT 1/2SM FG VV003=



000
FTUS46 KSEW 302300 AAC
TAFSEA
TAF AMD
KSEA 302315Z 3023/3124 VRB03KT 5SM BR HZ SCT003 SCT250
      TEMPO 3023/3102 2SM BR BKN003
     FM310300 00000KT 1SM BR OVC002
     FM310600 00000KT 1/4SM FG VV001
     FM312000 VRB03KT 2SM BR OVC003
     FM312200 VRB03KT 6SM BR HZ FEW003=



000
FTUS46 KSEW 302100 AAB
TAFOLM
TAF AMD
KOLM 302156Z 3022/3118 VRB03KT 1/2SM FG VV002
      TEMPO 3022/3024 1/4SM FG
     FM310000 VRB03KT 2SM BR OVC004
     FM310300 00000KT 3/4SM BR OVC003
     FM310600 00000KT 1/4SM FG VV001=



000
FTUS46 KSEW 302100 AAB
TAFSEA
TAF AMD
KSEA 302155Z 3022/3124 VRB03KT 5SM BR HZ FEW003 SCT250
     FM310000 VRB03KT P6SM SCT250
     FM310600 00000KT 5SM BR FEW002
     FM310900 00000KT 1/4SM FG VV001
     FM312000 VRB03KT 2SM BR OVC003
     FM312200 VRB03KT 6SM BR HZ FEW003=



000
FTUS46 KSEW 302100 AAC
TAFBFI
TAF AMD
KBFI 302104Z 3021/3118 00000KT 5SM BR HZ SCT006
     FM302200 VRB03KT P6SM SKC
     FM310600 00000KT P6SM VCFG SCT006
     FM310900 00000KT 2SM BR OVC004
     FM311200 00000KT 1/4SM FG VV002=



000
FTUS46 KSEW 302000 AAA
TAFOLM
TAF AMD
KOLM 302000Z 3020/3118 00000KT 1/2SM FG VV002
     FM302200 VRB03KT 2SM BR BKN004
     FM310000 VRB03KT P6SM SKC
     FM310300 00000KT 3SM BR FEW003
     FM310600 00000KT 1/4SM FG VV001=



000
FTUS46 KSEW 301900 AAB
TAFBFI
TAF AMD
KBFI 301959Z 3020/3118 00000KT 2SM BR BKN004
     FM302200 VRB03KT P6SM SKC
     FM310600 00000KT P6SM VCFG SCT006
     FM310900 00000KT 2SM BR OVC004
     FM311200 00000KT 1/4SM FG VV002=



000
FTUS46 KSEW 301900 AAA
TAFSEA
TAF AMD
KSEA 301958Z 3020/3124 VRB03KT 4SM BCFG SCT002
     FM302130 VRB03KT P6SM SKC
     FM310600 00000KT 5SM BR FEW002
     FM310900 00000KT 1/4SM FG VV001
     FM312000 VRB03KT 2SM BR OVC003
     FM312200 VRB03KT 6SM BR HZ FEW003=



000
FTUS46 KSEW 301900 AAA
TAFBFI
TAF AMD
KBFI 301937Z 3020/3118 00000KT 2SM BR BKN002
     FM302100 VRB03KT 6SM BR HZ FEW003
     FM302200 VRB03KT P6SM SKC
     FM310600 00000KT P6SM VCFG SCT006
     FM310900 00000KT 2SM BR OVC004
     FM311200 00000KT 1/4SM FG VV002=



000
FTUS46 KSEW 301800 AAA
TAFHQM
TAF AMD
KHQM 301801Z 3018/3118 07007KT 5SM BR FEW003
      TEMPO 3018/3020 1 1/2SM BR VV002
     FM302000 07007KT P6SM SKC
     FM310000 04005KT P6SM SKC
     FM310600 04005KT 5SM BR SKC
     FM310900 04005KT 1SM BR VV002
      TEMPO 3114/3118 1/4SM FG
      AMD NOT SKED=



000
FTUS46 KSEW 301700 RRA
TAFCLM
TAF
KCLM 301745Z 3018/3118 VRB03KT P6SM SKC
     FM310600 24005KT P6SM VCFG SKC=



000
FTUS46 KSEW 301700 RRA
TAFBFI
TAF
KBFI 301745Z 3018/3118 00000KT 1/2SM FG VV002
     FM302000 VRB03KT 6SM BR HZ FEW003
     FM302100 VRB03KT P6SM SKC
     FM310600 00000KT P6SM VCFG SCT006
     FM310900 00000KT 2SM BR OVC004
     FM311200 00000KT 1/4SM FG VV002=



000
FTUS46 KSEW 301700 RRA
TAFOLM
TAF
KOLM 301745Z 3018/3118 00000KT 1/4SM FG VV002
     FM302000 VRB03KT 2SM BR OVC002
     FM302200 VRB03KT 6SM BR BKN005
     FM310000 VRB03KT P6SM SKC
     FM310300 00000KT 3SM BR FEW003
     FM310600 00000KT 1/4SM FG VV001=



000
FTUS46 KSEW 301700 RRA
TAFHQM
TAF
KHQM 301745Z 3018/3118 07007KT 5SM BR FEW003
     FM302000 07007KT P6SM SKC
     FM310000 04005KT P6SM SKC
     FM310600 04005KT 5SM BR SKC
     FM310900 04005KT 1SM BR VV002
      TEMPO 3114/3118 1/4SM FG
      AMD NOT SKED=



000
FTUS46 KSEW 301700 RRA
TAFPAE
TAF
KPAE 301745Z 3018/3118 00000KT P6SM BCFG SKC
     FM302100 VRB03KT P6SM SKC
     FM310600 VRB03KT 3SM BR FEW002
     FM310900 00000KT 1/4SM FG VV001=



000
FTUS46 KSEW 301700 RRA
TAFSEA
TAF
KSEA 301745Z 3018/3124 VRB03KT 1SM BR SCT002
     FM302000 VRB03KT P6SM SKC
     FM310600 00000KT 5SM BR FEW002
     FM310900 00000KT 1/4SM FG VV001
     FM312000 VRB03KT 2SM BR OVC003
     FM312200 VRB03KT 6SM BR HZ FEW003=



000
FTUS46 KSEW 301700 RRA
TAFBLI
TAF
KBLI 301745Z 3018/3118 VRB03KT P6SM SKC
     FM310600 00000KT 5SM BR SKC
     FM310800 00000KT 1SM BR VV002
     FM311000 00000KT 1/4SM FG VV001=



000
FTUS46 KSEW 301600 AAE
TAFSEA
TAF AMD
KSEA 301604Z 3016/3118 00000KT 3/4SM BR BKN250
      TEMPO 3016/3018 1/4SM FG VV001
     FM301800 34003KT P6SM SKC
     FM310400 03004KT P6SM SCT250=



000
FTUS46 KSEW 301500 AAB
TAFHQM
TAF AMD
KHQM 301528Z 3015/3112 07006KT 3SM BR SCT003
      TEMPO 3015/3018 1/2SM FG VV001
     FM301800 06006KT P6SM SKC
     FM302200 32006KT P6SM SCT250=



000
FTUS46 KSEW 301500 AAA
TAFCLM
TAF AMD
KCLM 301518Z 3015/3112 00000KT P6SM BCFG SKC
     FM301800 07005KT P6SM SKC
     FM310300 24004KT P6SM SCT250=



000
FTUS46 KSEW 301500 AAB
TAFPAE
TAF AMD
KPAE 301513Z 3015/3112 00000KT 5SM BR FEW001
     FM301800 34004KT P6SM SKC
     FM310700 02003KT 1/2SM FG OVC001=



000
FTUS46 KSEW 301500 AAD
TAFSEA
TAF AMD
KSEA 301512Z 3015/3118 00000KT 1/4SM FG VV001
     FM301800 34003KT P6SM SKC
     FM310400 03004KT P6SM SCT250=



000
FTUS46 KSEW 301500 AAA
TAFHQM
TAF AMD
KHQM 301511Z 3015/3112 07006KT 4SM BR FEW002
      TEMPO 3015/3018 1SM BR VV002
     FM301800 06006KT P6SM SKC
     FM302200 32006KT P6SM SCT250=



000
FTUS46 KSEW 301500 AAA
TAFOLM
TAF AMD
KOLM 301510Z 3015/3112 00000KT 1/4SM FG VV002
     FM301900 00000KT 2SM BR OVC004
     FM302000 03003KT P6SM SKC
     FM310500 00000KT 1/2SM FG OVC001=



000
FTUS46 KSEW 301500 AAB
TAFBFI
TAF AMD
KBFI 301509Z 3015/3112 00000KT 1/4SM FG VV002
     FM301700 00000KT 2SM BR BKN005
     FM301900 34003KT P6SM SKC
     FM310300 00000KT P6SM SCT250=



000
FTUS46 KSEW 301400 AAC
TAFSEA
TAF AMD
KSEA 301417Z 3014/3118 VRB03KT 1/4SM FG BKN001
      TEMPO 3016/3017 2SM BR SCT002
     FM301700 34003KT P6SM SKC
     FM310400 03004KT P6SM SCT250=



000
FTUS46 KSEW 301300 AAA
TAFBFI
TAF AMD
KBFI 301302Z 3013/3112 00000KT 3SM BR OVC004
     FM301700 00000KT 5SM BR BKN006
     FM301800 34003KT P6SM SKC
     FM310300 00000KT P6SM SCT250=



000
FTUS46 KSEW 301200 AAB
TAFSEA
TAF AMD
KSEA 301216Z 3012/3118 05004KT P6SM SCT002
      TEMPO 3012/3016 1/2SM FG BKN002
     FM301700 34003KT P6SM SKC
     FM310400 03004KT P6SM SCT250=



000
FTUS46 KSEW 301200 AAA
TAFPAE
TAF AMD
KPAE 301211Z 3012/3112 01004KT 3SM BCFG SCT001
      TEMPO 3012/3015 1/4SM FG VV001
     FM301500 02003KT 1/2SM FG OVC001
      TEMPO 3015/3018 6SM BCFG SCT001
     FM301800 34004KT P6SM SKC
     FM310700 02003KT 1/2SM FG OVC001=



000
FTUS46 KSEW 301100 AAA
TAFSEA
TAF AMD
KSEA 301157Z 3012/3118 05004KT P6SM SCT004
     FM301700 34003KT P6SM SKC
     FM310400 03004KT P6SM SCT250=



000
FTUS46 KSEW 301100
TAFOLM
TAF
KOLM 301136Z 3012/3112 00000KT 1/2SM FZFG VV001
     FM301600 00000KT 1/2SM FG OVC001
     FM302000 03003KT P6SM SKC
     FM310500 00000KT 1/2SM FG OVC001=



000
FTUS46 KSEW 301100
TAFSEA
TAF
KSEA 301136Z 3012/3118 05004KT P6SM SKC
     FM301700 34003KT P6SM SKC
     FM310400 03004KT P6SM SCT250=



000
FTUS46 KSEW 301100
TAFBLI
TAF
KBLI 301136Z 3012/3112 00000KT P6SM BCFG SCT250
     FM301600 VRB03KT P6SM SCT250
     FM302100 24004KT P6SM SKC=



000
FTUS46 KSEW 301100
TAFPAE
TAF
KPAE 301136Z 3012/3112 01004KT 1SM BCFG BKN001
      TEMPO 3012/3015 1/4SM FG VV001
     FM301500 02003KT 1/2SM FG OVC001
      TEMPO 3015/3018 6SM BCFG SCT001
     FM301800 34004KT P6SM SKC
     FM310700 02003KT 1/2SM FG OVC001=



000
FTUS46 KSEW 301100
TAFCLM
TAF
KCLM 301136Z 3012/3112 00000KT P6SM SCT250
      TEMPO 3013/3016 5SM BR BKN006
     FM301800 07005KT P6SM SKC
     FM310300 24004KT P6SM SCT250=



000
FTUS46 KSEW 301100
TAFHQM
TAF
KHQM 301136Z 3012/3112 07004KT 5SM BR SKC
     FM301700 06006KT P6SM SKC
     FM302200 32006KT P6SM SCT250=



000
FTUS46 KSEW 301100
TAFBFI
TAF
KBFI 301136Z 3012/3112 00000KT P6SM SKC
     FM301800 34003KT P6SM SKC
     FM310300 00000KT P6SM SCT250=



000
FTUS46 KSEW 301000 AAB
TAFPAE
TAF AMD
KPAE 301028Z 3010/3106 01004KT 1/4SM FG VV001
     FM301500 02003KT 6SM BCFG SCT001
      TEMPO 3015/3017 1/2SM FG BKN001
     FM301700 34004KT P6SM SKC=



000
FTUS46 KSEW 301000 AAA
TAFCLM
TAF AMD
KCLM 301027Z 3010/3106 00000KT P6SM SKC
     FM301200 22003KT P6SM BCFG BKN004
      TEMPO 3012/3016 1SM BR OVC002
     FM301600 VRB03KT P6SM BKN006
     FM301800 07005KT P6SM SKC=



000
FTUS46 KSEW 300900 AAA
TAFSEA
TAF AMD
KSEA 300903Z 3009/3112 01006KT P6SM SKC
     FM301200 05003KT P6SM SCT003
     FM301700 34003KT P6SM SKC=



000
FTUS46 KSEW 300800 AAA
TAFPAE
TAF AMD
KPAE 300836Z 3009/3106 02003KT 6SM BCFG SCT001
      TEMPO 3009/3012 1/2SM FG BKN001
     FM301200 02003KT 6SM BCFG SCT001
      TEMPO 3012/3016 1/2SM FG BKN001
     FM301700 34004KT P6SM SKC=



000
FTUS46 KSEW 300500
TAFCLM
TAF
KCLM 300524Z 3006/3106 23004KT P6SM SKC
     FM301000 22004KT P6SM BCFG BKN004
      TEMPO 3012/3016 1SM BR OVC002
     FM301600 VRB03KT P6SM BKN006
     FM301800 07005KT P6SM SKC=



000
FTUS46 KSEW 300500
TAFPAE
TAF
KPAE 300524Z 3006/3106 02004KT P6SM SKC
     FM300900 02003KT 6SM BCFG SCT001
      TEMPO 3009/3012 1/2SM FG BKN001
     FM301200 02003KT 6SM BCFG SCT001
      TEMPO 3012/3016 1/2SM FG BKN001
     FM301700 34004KT P6SM SKC=



000
FTUS46 KSEW 300500
TAFBFI
TAF
KBFI 300524Z 3006/3106 00000KT P6SM SKC
     FM301200 00000KT P6SM VCFG SKC
     FM301800 34003KT P6SM SKC=



000
FTUS46 KSEW 300500
TAFSEA
TAF
KSEA 300524Z 3006/3112 01006KT P6SM SKC
     FM301200 05003KT P6SM SCT003
     FM301700 34003KT P6SM SKC=



000
FTUS46 KSEW 300500
TAFOLM
TAF
KOLM 300524Z 3006/3106 00000KT P6SM BCFG SKC
      TEMPO 3006/3008 1SM BR FEW001
     FM300800 00000KT 1/4SM FG VV001
     FM302000 03003KT P6SM SKC=



000
FTUS46 KSEW 300500
TAFBLI
TAF
KBLI 300524Z 3006/3106 00000KT P6SM BCFG SKC
      TEMPO 3009/3012 1/2SM FG BKN001
     FM301200 00000KT 1/2SM FG OVC001
     FM301600 VRB03KT P6SM BCFG SKC
     FM301700 24003KT P6SM SKC=



000
FTUS46 KSEW 300500
TAFHQM
TAF
KHQM 300524Z 3006/3106 04005KT P6SM SKC
     FM301200 04004KT 4SM BR SKC
     FM301700 06006KT P6SM SKC=



000
FTUS46 KSEW 300300 AAA
TAFSEA
TAF AMD
KSEA 300304Z 3003/3106 01006KT P6SM SKC
     FM301200 08004KT P6SM SCT003
     FM301700 34003KT P6SM SKC=



000
FTUS46 KSEW 292300
TAFOLM
TAF
KOLM 292330Z 3000/3024 02007KT P6SM SKC
     FM300800 00000KT 1/4SM FG VV001
     FM302000 03003KT P6SM SKC=



000
FTUS46 KSEW 292300
TAFCLM
TAF
KCLM 292330Z 3000/3024 09006KT P6SM SKC
     FM301200 22004KT P6SM BKN004
     FM301600 VRB03KT P6SM SCT250=



000
FTUS46 KSEW 292300
TAFHQM
TAF
KHQM 292330Z 3000/3024 08010KT P6SM SKC
     FM300900 07004KT 4SM BR SKC
     FM301700 14007KT P6SM SCT250=



000
FTUS46 KSEW 292300
TAFBFI
TAF
KBFI 292330Z 3000/3024 32007KT P6SM SKC
     FM301200 13002KT 4SM BR SKC
     FM301700 11002KT P6SM SKC=



000
FTUS46 KSEW 292300
TAFPAE
TAF
KPAE 292330Z 3000/3024 35005KT P6SM SKC
     FM301200 08003KT 2SM BR SCT001
     FM301700 03002KT P6SM SKC=



000
FTUS46 KSEW 292300
TAFSEA
TAF
KSEA 292330Z 3000/3106 01004KT P6SM SKC
     FM301200 08004KT 2SM BR SCT003
     FM301700 34003KT P6SM SKC=



000
FTUS46 KSEW 292300
TAFBLI
TAF
KBLI 292330Z 3000/3024 36006KT P6SM SKC
     FM301200 00000KT 4SM BR SCT250
     FM301700 00000KT P6SM SCT250=



000
FTUS46 KSEW 292100 AAA
TAFCLM
TAF AMD
KCLM 292101Z 2921/3018 08005KT P6SM SKC
     FM300000 VRB03KT P6SM FEW250
     FM301500 22004KT P6SM BKN004=



000
FTUS46 KSEW 292100 AAA
TAFSEA
TAF AMD
KSEA 292100Z 2921/3024 36007KT P6SM FEW080 SCT140
     FM301200 08004KT 2SM BR SCT003
     FM301700 34003KT P6SM SKC=



000
FTUS46 KSEW 291700
TAFHQM
TAF
KHQM 291734Z 2918/3018 08009KT P6SM SKC
     FM300900 07004KT 4SM BR SKC
     FM301700 14007KT P6SM SCT250=



000
FTUS46 KSEW 291700
TAFCLM
TAF
KCLM 291734Z 2918/3018 15004KT P6SM OVC010
     FM292100 06004KT P6SM BKN015
     FM300000 VRB03KT P6SM FEW250
     FM301500 22004KT P6SM BKN004=



000
FTUS46 KSEW 291700
TAFBFI
TAF
KBFI 291734Z 2918/3018 00000KT P6SM SCT200
     FM301200 13002KT 4SM BR SKC
     FM301700 11002KT P6SM SKC=



000
FTUS46 KSEW 291700
TAFPAE
TAF
KPAE 291734Z 2918/3018 01003KT P6SM SCT001 SCT200
     FM292000 32003KT P6SM SCT200
     FM301200 08003KT 2SM BR SCT001
     FM301700 03002KT P6SM SKC=



000
FTUS46 KSEW 291700
TAFOLM
TAF
KOLM 291734Z 2918/3018 05003KT 3SM BR OVC004
     FM292100 02004KT P6SM SCT250
     FM300600 00000KT 1/4SM FG VV001=



000
FTUS46 KSEW 291700
TAFBLI
TAF
KBLI 291734Z 2918/3018 02005KT P6SM OVC080
     FM292100 01002KT P6SM BKN250
     FM301200 00000KT 4SM BR SCT250
     FM301700 00000KT P6SM BKN250=



000
FTUS46 KSEW 291700
TAFSEA
TAF
KSEA 291734Z 2918/3024 02009KT P6SM FEW040 SCT150
     FM292000 02007KT P6SM SCT200
     FM301200 08004KT 2SM BR SCT003
     FM301700 34003KT P6SM SKC=



000
FTUS46 KSEW 291500 AAA
TAFPAE
TAF AMD
KPAE 291528Z 2915/3012 01004KT 6SM BCFG BKN080 OVC140
      TEMPO 2915/2918 1/2SM BCFG BKN001 OVC080
     FM291800 36005KT P6SM SCT250=



000
FTUS46 KSEW 291400 AAA
TAFSEA
TAF AMD
KSEA 291404Z 2914/3018 01006KT P6SM SCT120 BKN200=



000
FTUS46 KSEW 291100
TAFCLM
TAF
KCLM 291125Z 2912/3012 23003KT P6SM SCT006 BKN080
      TEMPO 2912/2916 BKN006 BKN080
     FM291900 09004KT P6SM SCT080=



000
FTUS46 KSEW 291100
TAFSEA
TAF
KSEA 291125Z 2912/3018 01006KT P6SM SCT080 BKN140
     FM291900 02006KT P6SM BKN250=



000
FTUS46 KSEW 291100
TAFPAE
TAF
KPAE 291125Z 2912/3012 01004KT 6SM BCFG BKN080 OVC140
      TEMPO 2912/2915 1/2SM BCFG BKN001 OVC080
     FM291500 05003KT P6SM BKN080 OVC140
     FM291900 36005KT P6SM SCT250=



000
FTUS46 KSEW 291100
TAFBLI
TAF
KBLI 291125Z 2912/3012 36003KT P6SM BKN080
     FM292100 34005KT P6SM SCT080=



000
FTUS46 KSEW 291100
TAFBFI
TAF
KBFI 291125Z 2912/3012 00000KT P6SM SCT080 BKN140
     FM291800 01003KT P6SM BKN100 BKN140
     FM292000 34005KT P6SM SCT250=



000
FTUS46 KSEW 291100
TAFOLM
TAF
KOLM 291125Z 2912/3012 00000KT 6SM BCFG SCT001 SCT080 BKN140
      TEMPO 2912/2916 1/2SM BCFG BKN001 OVC080
     FM291600 VRB03KT P6SM SCT080 BKN140
      TEMPO 2916/2918 1SM BR SCT001 SCT080 BKN140
     FM292000 03004KT P6SM SCT050 SCT250=



000
FTUS46 KSEW 291100
TAFHQM
TAF
KHQM 291125Z 2912/3012 08008KT P6SM SCT080 BKN140
     FM291500 08008KT P6SM BKN080 BKN140
     FM292000 05007KT P6SM SCT050 SCT080=



000
FTUS46 KSEW 290900 AAA
TAFSEA
TAF AMD
KSEA 290913Z 2909/3012 01006KT P6SM BKN080 BKN140
     FM291800 01005KT P6SM SCT060 SCT100 BKN200
     FM292100 36005KT P6SM SCT250=



000
FTUS46 KSEW 290800 AAA
TAFOLM
TAF AMD
KOLM 290833Z 2909/3006 00000KT P6SM BCFG SCT050 OVC080
      TEMPO 2909/2912 1SM BR BKN001 BKN050 OVC080
     FM291400 00000KT P6SM SCT050 BKN080
     FM291900 03003KT P6SM SCT050 SCT150=



000
FTUS46 KSEW 290800 AAA
TAFPAE
TAF AMD
KPAE 290829Z 2908/3006 01004KT P6SM PRFG BKN100
      TEMPO 2908/2910 1/2SM PRFG BKN001 BKN100
     FM291000 05003KT P6SM SCT060 BKN100
     FM291900 36005KT P6SM SCT250=



000
FTUS46 KSEW 290500
TAFBLI
TAF
KBLI 290530Z 2906/3006 00000KT P6SM BCFG SCT200
      TEMPO 2906/2908 1/2SM BCFG BKN001 BKN200
     FM290800 00000KT P6SM BKN080
     FM291100 VRB03KT P6SM BKN060
     FM291900 34005KT P6SM SCT250=



000
FTUS46 KSEW 290500
TAFPAE
TAF
KPAE 290530Z 2906/3006 VRB03KT P6SM SCT200
     FM291000 05003KT P6SM SCT060 BKN100
     FM291900 36005KT P6SM SCT250=



000
FTUS46 KSEW 290500
TAFOLM
TAF
KOLM 290530Z 2906/3006 00000KT P6SM BCFG BKN140
      TEMPO 2906/2909 1/2SM BCFG BKN001 BKN140
     FM290900 00000KT P6SM BCFG BKN050 BKN100
      TEMPO 2909/2913 1SM BR
     FM291400 00000KT P6SM SCT050 BKN100
     FM291900 03003KT P6SM SCT050 SCT150=



000
FTUS46 KSEW 290500
TAFBFI
TAF
KBFI 290530Z 2906/3006 00000KT P6SM SCT200
     FM290900 00000KT P6SM BKN060 BKN100
     FM291800 34004KT P6SM SCT060 BKN100
     FM292000 33005KT P6SM SCT250=



000
FTUS46 KSEW 290500
TAFCLM
TAF
KCLM 290530Z 2906/3006 23005KT P6SM BKN080
     FM290800 23005KT P6SM BKN060
     FM291800 09004KT P6SM SCT060=



000
FTUS46 KSEW 290500
TAFSEA
TAF
KSEA 290530Z 2906/3012 03006KT P6SM SCT200
     FM290900 03005KT P6SM BKN060 BKN100
     FM291800 02005KT P6SM SCT060 BKN100
     FM292000 36005KT P6SM SCT250=



000
FTUS46 KSEW 290500
TAFHQM
TAF
KHQM 290530Z 2906/3006 06007KT P6SM SCT050 BKN100
     FM291000 06005KT P6SM BKN050 BKN100
     FM291900 05006KT P6SM SCT050 SCT250=



000
FTUS46 KSEW 290400 AAB
TAFOLM
TAF AMD
KOLM 290424Z 2904/2924 00000KT P6SM BCFG SKC
      TEMPO 2904/2908 1/2SM BCFG BKN001
     FM290800 00000KT P6SM BCFG BKN060
      TEMPO 2908/2912 1/2SM BCFG BKN001 BKN060
     FM291200 00000KT P6SM BCFG FEW001 BKN050
      TEMPO 2912/2915 1SM BR BKN050
     FM291600 03003KT P6SM BKN050
     FM292000 04003KT P6SM SCT050 SCT150=



000
FTUS46 KSEW 290300 AAA
TAFSEA
TAF AMD
KSEA 290310Z 2903/3006 03006KT P6SM SCT200
     FM290900 03005KT P6SM BKN060 BKN100
     FM291800 02005KT P6SM SCT060 BKN100
     FM292000 36005KT P6SM SCT250=



000
FTUS46 KSEW 290200 AAA
TAFOLM
TAF AMD
KOLM 290203Z 2902/2924 00000KT 6SM BR SKC
      TEMPO 2902/2906 3SM BR BKN012
     FM290600 00000KT 3SM BR BKN012
     FM290800 00000KT 1/2SM FG OVC007
     FM291600 00000KT 1/2SM FG OVC001
     FM291900 03002KT 2SM BR OVC003
     FM292000 04003KT 4SM BR BKN007
     FM292100 04003KT P6SM SCT250=



000
FTUS46 KSEW 290200 AAA
TAFHQM
TAF AMD
KHQM 290203Z 2902/2924 05008KT P6SM FEW015 OVC070
     FM290400 08005KT P6SM BKN020 OVC070
     FM291000 06005KT 4SM BR OVC050
     FM291900 04006KT 4SM BR SCT250=



000
FTUS46 KSEW 282300
TAFOLM
TAF
KOLM 282330Z 2900/2924 10003KT P6SM OVC011
     FM290600 00000KT 4SM BR BKN015
     FM290800 00000KT 1/2SM FG OVC007
     FM291600 00000KT 1/2SM FG OVC001
     FM291900 03002KT 2SM BR OVC003
     FM292000 04003KT 4SM BR BKN007
     FM292100 04003KT P6SM SCT250=



000
FTUS46 KSEW 282300
TAFPAE
TAF
KPAE 282330Z 2900/2924 00000KT P6SM SCT024
     FM290300 04003KT P6SM BKN200
     FM291100 08003KT P6SM BKN100
     FM291900 VRB03KT P6SM SCT250=



000
FTUS46 KSEW 282300
TAFBFI
TAF
KBFI 282330Z 2900/2924 29003KT P6SM SCT020
     FM290200 34003KT P6SM BKN200
     FM291000 00000KT P6SM OVC100
     FM291900 34003KT P6SM SCT250=



000
FTUS46 KSEW 282300
TAFCLM
TAF
KCLM 282330Z 2900/2924 00000KT P6SM OVC019
     FM290400 16002KT P6SM OVC050
     FM291100 17002KT P6SM BKN100
     FM291600 10002KT P6SM SKC=



000
FTUS46 KSEW 282300
TAFBLI
TAF
KBLI 282330Z 2900/2924 02005KT P6SM SCT035
     FM290500 00000KT P6SM BKN200
     FM291900 34002KT P6SM SCT250=



000
FTUS46 KSEW 282300
TAFHQM
TAF
KHQM 282330Z 2900/2924 08011KT P6SM SCT021
     FM290200 08005KT P6SM OVC020
     FM291000 06005KT 4SM BR OVC050
     FM291900 04006KT 4SM BR SCT250=



000
FTUS46 KSEW 282300
TAFSEA
TAF
KSEA 282330Z 2900/3006 01005KT P6SM SCT016
     FM290200 05005KT P6SM BKN200
     FM291000 05004KT 4SM BR OVC100
     FM291400 02004KT P6SM OVC007
     FM291800 01003KT P6SM SCT250=



000
FTUS46 KSEW 282100 AAA
TAFCLM
TAF AMD
KCLM 282116Z 2821/2918 04005KT P6SM BKN022
     FM282200 VRB03KT P6SM SCT025
     FM290700 VRB03KT P6SM BKN050 OVC080=



000
FTUS46 KSEW 282100 AAA
TAFOLM
TAF AMD
KOLM 282116Z 2821/2918 00000KT P6SM OVC011
      TEMPO 2821/2901 SCT012 OVC035
     FM290600 00000KT 4SM BR OVC012
     FM290900 00000KT 2SM BR OVC010
     FM291500 00000KT 1/2SM FG OVC001=



000
FTUS46 KSEW 282100 AAA
TAFHQM
TAF AMD
KHQM 282114Z 2821/2918 08011KT 5SM BR OVC017
      TEMPO 2823/2903 P6SM -RA OVC025
     FM290300 07003KT P6SM OVC025
      TEMPO 2903/2906 P6SM -RA OVC020
     FM290900 07003KT 5SM BR OVC050
     FM291200 06003KT P6SM OVC050
     FM291500 06003KT 5SM BR OVC050=



000
FTUS46 KSEW 282000 AAA
TAFSEA
TAF AMD
KSEA 282026Z 2820/2924 28003KT P6SM FEW007 BKN010 BKN030
     FM282100 34005KT P6SM SCT012 BKN040
     FM290000 03004KT P6SM SCT050 BKN100
     FM290400 04004KT P6SM OVC050=



000
FTUS46 KSEW 281900 AAA
TAFPAE
TAF AMD
KPAE 281902Z 2819/2918 36003KT P6SM FEW015 OVC035
     FM282100 VRB04KT P6SM BKN045
     FM290200 17004KT P6SM SCT050 BKN100
     FM290600 15004KT P6SM OVC050=



000
FTUS46 KSEW 281900 AAA
TAFBFI
TAF AMD
KBFI 281902Z 2819/2918 02003KT P6SM SCT018 OVC040
     FM282100 34004KT P6SM BKN045
     FM290000 35004KT P6SM SCT050 BKN100
     FM290400 00000KT P6SM OVC050=



    US Dept of Commerce
    National Oceanic and Atmospheric Administration
    National Weather Service
    1325 East West Highway
    Silver Spring, MD 20910
    Page Author: NWS Internet Services Team
Disclaimer
Information Quality
Credits
Glossary
Privacy Policy
Freedom of Information Act (FOIA)
About Us
Career Opportunities